Time;durP1;ratioP1;P1;durP2;ratioP2;P2;SDS_P1;SDS_P2;PMS_P1;PMS_P2;Temp;Humidity;BMP_temperature;BMP_pressure;BME280_temperature;BME280_humidity;BME280_pressure;Samples;Min_cycle;Max_cycle;Signal;HPM_P1;HPM_P2
2022/03/19 00:01:56;;;;;;;25.67;15.40;;;6.60;99.90;;;;;;5093248;28;20027;-72
2022/03/19 00:04:21;;;;;;;28.83;14.07;;;6.60;99.90;;;;;;5075726;28;20024;-72
2022/03/19 00:06:48;;;;;;;30.73;14.57;;;6.60;99.90;;;;;;5071648;28;20053;-72
2022/03/19 00:09:14;;;;;;;23.38;14.38;;;6.60;99.90;;;;;;5073163;28;20021;-72
2022/03/19 00:11:40;;;;;;;23.48;14.15;;;6.50;99.90;;;;;;5073166;28;20377;-72
2022/03/19 00:14:06;;;;;;;26.45;14.77;;;6.50;99.90;;;;;;5073166;28;20017;-72
2022/03/19 00:16:32;;;;;;;26.35;14.57;;;6.50;99.90;;;;;;5073126;28;20497;-72
2022/03/19 00:18:58;;;;;;;25.85;14.32;;;6.40;99.90;;;;;;5073091;28;20025;-71
2022/03/19 00:21:24;;;;;;;25.83;14.10;;;6.30;99.90;;;;;;5055085;28;20294;-72
2022/03/19 00:23:49;;;;;;;24.58;13.88;;;6.40;99.90;;;;;;5072995;28;20029;-71
2022/03/19 00:26:16;;;;;;;27.10;14.57;;;6.40;99.90;;;;;;5072866;28;20024;-72
2022/03/19 00:28:42;;;;;;;24.80;14.23;;;6.50;99.90;;;;;;5055128;28;20432;-72
2022/03/19 00:31:08;;;;;;;21.85;13.85;;;6.50;99.90;;;;;;5072942;28;20013;-72
2022/03/19 00:33:34;;;;;;;23.10;13.80;;;6.40;99.90;;;;;;5072974;28;20066;-72
2022/03/19 00:35:59;;;;;;;25.88;13.95;;;6.40;99.90;;;;;;5072846;28;20029;-72
2022/03/19 00:38:25;;;;;;;32.45;14.20;;;6.30;99.90;;;;;;5054896;28;20115;-72
2022/03/19 00:40:51;;;;;;;27.00;13.73;;;6.40;99.90;;;;;;5071651;28;20028;-72
2022/03/19 00:43:19;;;;;;;24.20;14.65;;;6.30;99.90;;;;;;5072778;28;20021;-72
2022/03/19 00:45:46;;;;;;;30.88;15.13;;;6.20;99.90;;;;;;5071428;28;20025;-72
2022/03/19 00:48:12;;;;;;;26.60;14.02;;;6.10;99.90;;;;;;5072815;28;20017;-73
2022/03/19 00:50:37;;;;;;;27.15;15.30;;;6.00;99.90;;;;;;5071582;28;20024;-72
2022/03/19 00:53:03;;;;;;;24.70;15.10;;;5.90;99.90;;;;;;5072727;28;20027;-72
2022/03/19 00:55:29;;;;;;;26.55;14.50;;;5.70;99.90;;;;;;5071544;28;20021;-72
2022/03/19 00:57:54;;;;;;;27.42;15.30;;;5.40;99.90;;;;;;5072758;28;20029;-72
2022/03/19 01:00:24;;;;;;;25.85;15.35;;;5.30;99.90;;;;;;5072654;28;20032;-72
2022/03/19 01:02:51;;;;;;;37.42;16.67;;;5.20;99.90;;;;;;5071642;28;20017;-73
2022/03/19 01:05:17;;;;;;;30.38;16.02;;;5.00;99.90;;;;;;5071129;28;20076;-72
2022/03/19 01:07:48;;;;;;;28.02;16.73;;;5.00;99.90;;;;;;5071453;28;20048;-73
2022/03/19 01:10:17;;;;;;;32.03;16.20;;;4.80;99.90;;;;;;5072585;28;20390;-72
2022/03/19 01:12:43;;;;;;;29.60;16.65;;;4.70;99.90;;;;;;5072547;28;20025;-72
2022/03/19 01:15:09;;;;;;;28.65;16.33;;;4.60;99.90;;;;;;5076188;28;20058;-72
2022/03/19 01:17:36;;;;;;;24.65;14.80;;;4.70;99.90;;;;;;5074827;28;20028;-72
2022/03/19 01:20:02;;;;;;;31.35;16.75;;;4.80;99.90;;;;;;5076129;28;20027;-72
2022/03/19 01:22:29;;;;;;;28.58;16.20;;;5.00;99.90;;;;;;5075963;28;20031;-72
2022/03/19 01:24:55;;;;;;;32.80;15.20;;;5.30;99.90;;;;;;5074829;28;20456;-72
2022/03/19 01:27:21;;;;;;;28.05;15.45;;;5.50;99.90;;;;;;5074638;28;20443;-72
2022/03/19 01:29:47;;;;;;;31.85;15.50;;;5.60;99.90;;;;;;5075840;28;20092;-72
2022/03/19 01:32:13;;;;;;;27.65;14.52;;;5.60;99.90;;;;;;5075820;28;20104;-72
2022/03/19 01:34:41;;;;;;;27.83;14.82;;;5.70;99.90;;;;;;5074616;28;20151;-72
2022/03/19 01:37:07;;;;;;;29.77;15.48;;;5.60;99.90;;;;;;5074517;28;20473;-72
2022/03/19 01:39:33;;;;;;;27.35;14.80;;;5.60;99.90;;;;;;5075659;28;20425;-72
2022/03/19 01:41:58;;;;;;;26.02;15.38;;;5.60;99.90;;;;;;5075733;28;20039;-72
2022/03/19 01:44:24;;;;;;;27.67;15.27;;;5.50;99.90;;;;;;5075664;28;20059;-72
2022/03/19 01:46:57;;;;;;;28.10;15.35;;;5.50;99.90;;;;;;5074319;28;20032;-72
2022/03/19 01:49:22;;;;;;;;;;;5.50;99.90;;;;;;5075941;28;20425;-73
2022/03/19 01:51:48;;;;;;;30.67;14.20;;;5.70;99.90;;;;;;5091180;28;19909;-72
2022/03/19 01:54:14;;;;;;;24.30;14.10;;;5.70;99.90;;;;;;5075432;28;20478;-72
2022/03/19 01:56:41;;;;;;;25.65;13.75;;;5.80;99.90;;;;;;5075373;28;20032;-72
2022/03/19 01:59:07;;;;;;;25.80;14.07;;;5.80;99.90;;;;;;5075328;28;20020;-71
2022/03/19 02:01:33;;;;;;;25.58;13.80;;;5.80;99.90;;;;;;5075347;28;20362;-72
2022/03/19 02:04:00;;;;;;;22.77;13.60;;;5.60;99.90;;;;;;5075355;28;20056;-72
2022/03/19 02:06:27;;;;;;;25.67;13.90;;;5.60;99.90;;;;;;5088955;28;20570;-72
2022/03/19 02:08:54;;;;;;;22.67;14.30;;;5.50;99.90;;;;;;5095374;28;20101;-72
2022/03/19 02:11:20;;;;;;;29.83;15.25;;;5.30;99.90;;;;;;5095281;28;20026;-72
2022/03/19 02:13:46;;;;;;;22.05;13.35;;;5.20;99.90;;;;;;5077428;28;20384;-72
2022/03/19 02:16:12;;;;;;;29.52;13.32;;;5.30;99.90;;;;;;5095206;28;20541;-72
2022/03/19 02:18:38;;;;;;;26.73;13.20;;;5.40;99.90;;;;;;5060388;28;20118;-72
2022/03/19 02:21:03;;;;;;;22.02;12.68;;;5.50;99.90;;;;;;5095150;28;20027;-72
2022/03/19 02:26:14;;;;;;;20.40;12.30;;;5.60;99.90;;;;;;5079700;28;20028;-72
2022/03/19 02:28:40;;;;;;;27.08;12.60;;;5.80;99.90;;;;;;5094984;28;20517;-72
2022/03/19 02:31:05;;;;;;;22.00;12.35;;;5.80;99.90;;;;;;5076818;28;20065;-72
2022/03/19 02:33:31;;;;;;;23.30;12.68;;;5.80;99.90;;;;;;5094954;28;20028;-72
2022/03/19 02:35:56;;;;;;;28.58;13.25;;;5.80;99.90;;;;;;5094865;28;20374;-72
2022/03/19 02:38:22;;;;;;;25.42;12.68;;;5.60;99.90;;;;;;5094773;28;20067;-72
2022/03/19 02:40:47;;;;;;;21.48;12.20;;;5.60;99.90;;;;;;5094720;28;20028;-72
2022/03/19 02:43:13;;;;;;;22.55;12.45;;;5.40;99.90;;;;;;5076665;28;20133;-72
2022/03/19 02:45:39;;;;;;;23.98;12.23;;;5.40;99.90;;;;;;5094590;28;20056;-72
2022/03/19 02:48:05;;;;;;;24.80;13.32;;;5.40;99.90;;;;;;5076354;28;20081;-72
2022/03/19 02:50:34;;;;;;;22.17;12.20;;;5.40;99.90;;;;;;5076422;28;20541;-72
2022/03/19 02:53:02;;;;;;;20.23;12.80;;;5.40;99.90;;;;;;5094456;28;20028;-72
2022/03/19 02:55:34;;;;;;;25.50;13.32;;;5.30;99.90;;;;;;5076416;28;20027;-72
2022/03/19 02:58:00;;;;;;;20.45;14.02;;;5.20;99.90;;;;;;5094438;28;20386;-72
2022/03/19 03:00:26;;;;;;;28.13;13.35;;;5.30;99.90;;;;;;5094397;28;20032;-72
2022/03/19 03:02:51;;;;;;;28.73;13.50;;;5.30;99.90;;;;;;5076300;28;20031;-72
2022/03/19 03:05:17;;;;;;;20.30;12.18;;;5.30;99.90;;;;;;5072533;28;20048;-72
2022/03/19 03:07:43;;;;;;;25.05;13.70;;;5.20;99.90;;;;;;5073963;28;20033;-72
2022/03/19 03:10:09;;;;;;;25.67;13.85;;;5.20;99.90;;;;;;5073982;28;20486;-72
2022/03/19 03:12:36;;;;;;;23.73;14.13;;;5.10;99.90;;;;;;5073988;28;20430;-73
2022/03/19 03:15:01;;;;;;;25.27;14.23;;;5.00;99.90;;;;;;5073883;28;20055;-72
2022/03/19 03:17:28;;;;;;;24.88;14.60;;;4.80;99.90;;;;;;5072730;28;20025;-72
2022/03/19 03:19:54;;;;;;;27.20;14.80;;;4.80;99.90;;;;;;5072583;28;20082;-72
2022/03/19 03:22:19;;;;;;;31.85;15.45;;;4.90;99.90;;;;;;5072497;28;20494;-72
2022/03/19 03:24:45;;;;;;;28.65;14.38;;;5.00;99.90;;;;;;5073606;28;20397;-73
2022/03/19 03:27:10;;;;;;;27.33;14.45;;;4.90;99.90;;;;;;5073528;28;20475;-72
2022/03/19 03:29:36;;;;;;;28.13;14.32;;;4.80;99.90;;;;;;5072286;28;20071;-72
2022/03/19 03:32:01;;;;;;;28.70;13.98;;;4.90;99.90;;;;;;5072405;28;20428;-72
2022/03/19 03:34:27;;;;;;;29.80;15.43;;;5.10;99.90;;;;;;5073603;28;20025;-73
2022/03/19 03:36:53;;;;;;;32.75;15.77;;;5.00;99.90;;;;;;5071785;28;20432;-72
2022/03/19 03:39:20;;;;;;;23.95;14.30;;;5.00;99.90;;;;;;5073494;28;20021;-72
2022/03/19 03:41:46;;;;;;;32.67;15.07;;;4.90;99.90;;;;;;5072177;28;20107;-72
2022/03/19 03:44:11;;;;;;;30.33;15.18;;;5.00;99.90;;;;;;5072151;28;20116;-72
2022/03/19 03:46:37;;;;;;;31.80;14.75;;;4.90;99.90;;;;;;5073310;28;20071;-72
2022/03/19 03:49:02;;;;;;;25.45;15.32;;;4.80;99.90;;;;;;5073454;28;20021;-72
2022/03/19 03:51:28;;;;;;;32.28;15.75;;;4.70;99.90;;;;;;5072028;28;20083;-73
2022/03/19 03:53:53;;;;;;;37.05;16.38;;;4.60;99.90;;;;;;5073274;28;20033;-72
2022/03/19 03:56:19;;;;;;;32.17;16.13;;;4.70;99.90;;;;;;5072361;28;20029;-72
2022/03/19 03:58:45;;;;;;;32.50;16.23;;;4.60;99.90;;;;;;5073249;28;20031;-72
2022/03/19 04:01:11;;;;;;;28.02;16.15;;;4.50;99.90;;;;;;5072064;28;20470;-72
2022/03/19 04:03:37;;;;;;;29.48;16.65;;;4.40;99.90;;;;;;5073249;28;20028;-72
2022/03/19 04:06:03;;;;;;;37.95;18.70;;;4.30;99.90;;;;;;5071744;28;20041;-72
2022/03/19 04:08:28;;;;;;;37.92;18.48;;;4.30;99.90;;;;;;5055195;28;20020;-73
2022/03/19 04:10:54;;;;;;;33.70;18.05;;;4.20;99.90;;;;;;5055149;28;20024;-73
2022/03/19 04:13:19;;;;;;;29.48;17.75;;;4.20;99.90;;;;;;5073074;28;20386;-73
2022/03/19 04:15:45;;;;;;;38.33;18.73;;;4.10;99.90;;;;;;5073066;28;20032;-72
2022/03/19 04:18:13;;;;;;;35.10;19.05;;;4.10;99.90;;;;;;5073139;28;20032;-73
2022/03/19 04:20:39;;;;;;;40.20;20.48;;;4.10;99.90;;;;;;5073042;28;20028;-72
2022/03/19 04:23:05;;;;;;;35.90;20.27;;;4.10;99.90;;;;;;5073050;28;20028;-73
2022/03/19 04:25:30;;;;;;;35.72;18.83;;;4.10;99.90;;;;;;5072908;28;20058;-72
2022/03/19 04:27:57;;;;;;;43.75;19.92;;;4.00;99.90;;;;;;5073060;28;20481;-72
2022/03/19 04:30:24;;;;;;;34.45;18.23;;;4.20;99.90;;;;;;5073095;28;20070;-72
2022/03/19 04:32:53;;;;;;;41.55;19.88;;;4.30;99.90;;;;;;5072086;28;20017;-72
2022/03/19 04:38:07;;;;;;;37.38;18.38;;;4.40;99.90;;;;;;5071712;28;20021;-72
2022/03/19 04:40:34;;;;;;;33.40;18.25;;;4.40;99.90;;;;;;5072922;28;20028;-73
2022/03/19 04:43:00;;;;;;;34.05;18.25;;;4.40;99.90;;;;;;5072846;28;20029;-73
2022/03/19 04:45:26;;;;;;;48.08;19.42;;;4.30;99.90;;;;;;5071661;28;20486;-72
2022/03/19 04:47:52;;;;;;;37.65;18.65;;;4.30;99.90;;;;;;5071927;28;20032;-72
2022/03/19 04:50:18;;;;;;;38.13;19.20;;;4.50;99.90;;;;;;5076534;28;20035;-72
2022/03/19 04:52:44;;;;;;;31.85;17.85;;;4.60;99.90;;;;;;5076617;28;20100;-72
2022/03/19 04:55:10;;;;;;;30.10;16.33;;;4.70;99.90;;;;;;5076555;28;20020;-72
2022/03/19 04:57:37;;;;;;;29.80;15.90;;;4.70;99.90;;;;;;5076472;28;20375;-72
2022/03/19 05:00:04;;;;;;;32.20;16.40;;;4.70;99.90;;;;;;5076423;28;20087;-72
2022/03/19 05:02:30;;;;;;;29.80;16.40;;;4.60;99.90;;;;;;5075122;28;20064;-72
2022/03/19 05:04:55;;;;;;;38.92;17.10;;;4.60;99.90;;;;;;5076293;28;20055;-72
2022/03/19 05:07:22;;;;;;;34.50;17.20;;;4.50;99.90;;;;;;5096451;28;20028;-72
2022/03/19 05:12:38;;;;;;;34.83;16.65;;;4.50;99.90;;;;;;5081268;28;20076;-72
2022/03/19 05:15:06;;;;;;;35.35;15.88;;;4.60;99.90;;;;;;5096476;28;20020;-72
2022/03/19 05:17:32;;;;;;;27.25;15.63;;;4.60;99.90;;;;;;5096446;28;20020;-72
2022/03/19 05:19:58;;;;;;;33.85;15.07;;;4.80;99.90;;;;;;5078103;28;20493;-72
2022/03/19 05:22:23;;;;;;;34.30;14.77;;;4.80;99.90;;;;;;5078126;28;20543;-72
2022/03/19 05:24:49;;;;;;;34.80;16.02;;;4.80;99.90;;;;;;5096239;28;20453;-72
2022/03/19 05:27:16;;;;;;;26.48;14.50;;;4.70;99.90;;;;;;5078067;28;20477;-72
2022/03/19 05:29:41;;;;;;;29.92;13.43;;;4.60;99.90;;;;;;5096162;28;20016;-72
2022/03/19 05:32:08;;;;;;;31.80;13.73;;;4.70;99.90;;;;;;5096128;28;20027;-72
2022/03/19 05:34:34;;;;;;;32.05;13.52;;;4.70;99.90;;;;;;5096071;28;20016;-72
2022/03/19 05:37:02;;;;;;;28.80;13.20;;;4.60;99.90;;;;;;5078122;28;20359;-72
2022/03/19 05:39:28;;;;;;;25.77;13.25;;;4.60;99.90;;;;;;5095980;28;20050;-72
2022/03/19 05:41:54;;;;;;;24.42;13.10;;;4.60;99.90;;;;;;5077717;28;20023;-72
2022/03/19 05:44:20;;;;;;;26.75;13.10;;;4.70;99.90;;;;;;5077933;28;20404;-72
2022/03/19 05:46:45;;;;;;;27.10;12.50;;;4.60;99.90;;;;;;5095795;28;20032;-72
2022/03/19 05:49:11;;;;;;;24.85;12.27;;;4.60;99.90;;;;;;5077641;28;20020;-72
2022/03/19 05:51:37;;;;;;;29.42;13.50;;;4.60;99.90;;;;;;5095693;28;20381;-72
2022/03/19 05:54:02;;;;;;;26.45;12.80;;;4.60;99.90;;;;;;5095771;28;20024;-72
2022/03/19 05:56:29;;;;;;;25.08;12.50;;;4.60;99.90;;;;;;5095741;28;20031;-72
2022/03/19 05:58:55;;;;;;;26.10;12.27;;;4.70;99.90;;;;;;5077065;28;20123;-72
2022/03/19 06:01:26;;;;;;;29.67;13.02;;;4.70;99.90;;;;;;5095564;28;20424;-72
2022/03/19 06:03:53;;;;;;;25.55;13.18;;;4.70;99.90;;;;;;5095491;28;20020;-72
2022/03/19 06:06:18;;;;;;;36.15;13.70;;;4.70;99.90;;;;;;5095163;28;20401;-72
2022/03/19 06:08:44;;;;;;;29.52;13.88;;;4.90;99.90;;;;;;5095403;28;20024;-72
2022/03/19 06:11:09;;;;;;;27.17;12.57;;;4.90;99.90;;;;;;5077285;28;20020;-72
2022/03/19 06:13:35;;;;;;;30.75;13.38;;;5.00;99.90;;;;;;5095364;28;20366;-72
2022/03/19 06:16:00;;;;;;;25.45;14.07;;;5.10;99.90;;;;;;5095366;28;20397;-72
2022/03/19 06:18:26;;;;;;;31.73;13.07;;;5.40;99.90;;;;;;5095214;28;20217;-72
2022/03/19 06:20:52;;;;;;;30.05;12.77;;;5.60;99.90;;;;;;5077123;28;20026;-72
2022/03/19 06:23:17;;;;;;;29.45;14.00;;;6.10;99.90;;;;;;5076970;28;20028;-73
2022/03/19 06:25:43;;;;;;;27.35;13.82;;;6.30;99.90;;;;;;5095013;28;20554;-72
2022/03/19 06:28:09;;;;;;;30.25;14.35;;;6.50;99.90;;;;;;5076849;28;20103;-72
2022/03/19 06:30:37;;;;;;;30.55;13.32;;;6.70;99.90;;;;;;5095035;28;20020;-73
2022/03/19 06:33:04;;;;;;;25.50;11.88;;;7.10;99.90;;;;;;5094976;28;20028;-72
2022/03/19 06:38:16;;;;;;;24.00;12.40;;;7.90;99.90;;;;;;5079727;28;20031;-73
2022/03/19 06:40:41;;;;;;;24.42;11.68;;;8.20;99.90;;;;;;5076658;28;20024;-73
2022/03/19 06:43:07;;;;;;;25.58;11.88;;;8.50;99.90;;;;;;5094665;28;20024;-73
2022/03/19 06:45:32;;;;;;;30.33;12.77;;;9.30;99.90;;;;;;5094559;28;20021;-73
2022/03/19 06:47:58;;;;;;;24.45;12.77;;;9.20;99.90;;;;;;5076550;28;20477;-73
2022/03/19 06:50:23;;;;;;;30.42;12.07;;;9.60;99.90;;;;;;5094550;28;20359;-73
2022/03/19 06:52:49;;;;;;;23.23;11.35;;;10.60;99.90;;;;;;5094493;28;20020;-72
2022/03/19 06:55:14;;;;;;;23.83;11.02;;;10.90;99.90;;;;;;5094507;28;20107;-73
2022/03/19 06:57:40;;;;;;;26.10;11.35;;;10.80;99.90;;;;;;5076233;28;20111;-73
2022/03/19 07:00:06;;;;;;;23.60;10.43;;;11.00;99.90;;;;;;5076377;28;20024;-72
2022/03/19 07:02:32;;;;;;;23.50;11.18;;;11.60;99.90;;;;;;5076348;28;20031;-72
2022/03/19 07:04:58;;;;;;;22.75;10.23;;;10.70;99.90;;;;;;5076051;28;20024;-72
2022/03/19 07:07:23;;;;;;;20.85;9.85;;;11.20;99.90;;;;;;5076013;28;20072;-72
2022/03/19 07:09:50;;;;;;;21.50;9.45;;;11.30;99.90;;;;;;5059461;28;20048;-72
2022/03/19 07:12:15;;;;;;;20.92;10.55;;;10.70;99.90;;;;;;5075305;28;20028;-73
2022/03/19 07:14:41;;;;;;;20.35;9.60;;;11.10;99.90;;;;;;5076078;28;20534;-73
2022/03/19 07:17:07;;;;;;;19.95;9.90;;;10.20;99.90;;;;;;5094127;28;20470;-73
2022/03/19 07:19:33;;;;;;;20.23;9.18;;;11.50;99.90;;;;;;5094115;28;20028;-73
2022/03/19 07:21:58;;;;;;;20.63;9.25;;;11.90;99.90;;;;;;5094052;28;20358;-73
2022/03/19 07:24:24;;;;;;;18.35;9.02;;;12.00;99.90;;;;;;5075887;28;20054;-73
2022/03/19 07:26:50;;;;;;;17.90;8.90;;;12.70;99.90;;;;;;5075624;28;20106;-73
2022/03/19 07:29:18;;;;;;;20.50;9.48;;;12.60;99.90;;;;;;5093867;28;20150;-73
2022/03/19 07:31:44;;;;;;;18.40;8.73;;;13.20;99.90;;;;;;5059464;28;20024;-73
2022/03/19 07:34:10;;;;;;;21.48;8.27;;;13.90;99.00;;;;;;5075547;28;20028;-73
2022/03/19 07:36:36;;;;;;;14.88;7.53;;;13.80;99.40;;;;;;5093819;28;20020;-72
2022/03/19 07:39:01;;;;;;;22.45;8.75;;;12.50;99.90;;;;;;5075859;28;20032;-73
2022/03/19 07:41:59;;;;;;;14.30;7.65;;;13.20;99.90;;;;;;5075666;28;20438;-73
2022/03/19 07:44:12;;;;;;;13.30;7.30;;;13.30;99.10;;;;;;5093427;28;20024;-73
2022/03/19 07:46:41;;;;;;;14.13;7.82;;;13.00;98.40;;;;;;5093511;28;20074;-72
2022/03/19 07:49:07;;;;;;;18.05;7.22;;;13.40;98.50;;;;;;5093497;28;20016;-73
2022/03/19 07:51:33;;;;;;;13.07;6.55;;;11.90;99.90;;;;;;5075296;28;20065;-73
2022/03/19 07:53:58;;;;;;;17.05;6.70;;;11.70;99.90;;;;;;5093388;28;20020;-72
2022/03/19 07:56:24;;;;;;;12.20;6.50;;;12.90;98.50;;;;;;5075378;28;20424;-72
2022/03/19 07:58:50;;;;;;;13.15;6.90;;;13.00;96.10;;;;;;5093342;28;20426;-72
2022/03/19 08:01:17;;;;;;;11.35;6.05;;;12.90;96.80;;;;;;5075369;28;20095;-72
2022/03/19 08:03:43;;;;;;;13.00;5.45;;;13.40;94.00;;;;;;5093293;28;20526;-72
2022/03/19 08:06:09;;;;;;;12.57;5.63;;;13.80;94.30;;;;;;5075268;28;20048;-72
2022/03/19 08:08:36;;;;;;;16.80;6.15;;;13.60;91.70;;;;;;5075072;28;20470;-73
2022/03/19 08:11:01;;;;;;;16.38;5.70;;;12.60;93.20;;;;;;5091851;28;20070;-73
2022/03/19 08:13:27;;;;;;;12.27;6.20;;;12.20;94.30;;;;;;5075032;28;20424;-73
2022/03/19 08:15:53;;;;;;;11.00;5.78;;;12.50;94.40;;;;;;5093119;28;20039;-73
2022/03/19 08:18:19;;;;;;;12.10;5.50;;;13.00;94.20;;;;;;5093215;28;20466;-73
2022/03/19 08:20:46;;;;;;;13.88;5.65;;;13.90;92.20;;;;;;5075015;28;20028;-73
2022/03/19 08:23:13;;;;;;;12.20;5.20;;;14.30;87.60;;;;;;5095881;28;20026;-73
2022/03/19 08:25:39;;;;;;;15.18;5.20;;;14.80;85.80;;;;;;5097347;28;20052;-73
2022/03/19 08:28:05;;;;;;;10.90;4.90;;;14.40;83.50;;;;;;5079248;28;20028;-73
2022/03/19 08:30:31;;;;;;;9.73;4.85;;;13.10;84.80;;;;;;5079179;28;20035;-73
2022/03/19 08:32:57;;;;;;;11.32;4.93;;;13.70;85.70;;;;;;5097290;28;20385;-73
2022/03/19 08:35:22;;;;;;;9.07;4.40;;;14.30;82.50;;;;;;5079058;28;20031;-74
2022/03/19 08:37:48;;;;;;;11.48;4.03;;;14.10;81.00;;;;;;5097105;28;20028;-73
2022/03/19 08:40:17;;;;;;;12.98;4.93;;;14.30;81.20;;;;;;5097149;28;20024;-73
2022/03/19 08:42:44;;;;;;;7.70;4.03;;;14.40;77.20;;;;;;5097043;28;20474;-73
2022/03/19 08:45:10;;;;;;;8.30;3.97;;;14.60;75.20;;;;;;5078806;28;20154;-73
2022/03/19 08:47:36;;;;;;;12.35;3.70;;;13.40;77.00;;;;;;5096861;28;20024;-73
2022/03/19 08:50:03;;;;;;;10.85;3.90;;;14.20;75.80;;;;;;5078707;28;20366;-73
2022/03/19 08:52:28;;;;;;;7.38;3.40;;;14.20;72.10;;;;;;5096980;28;20077;-73
2022/03/19 08:54:55;;;;;;;10.32;3.30;;;14.10;70.10;;;;;;5078627;28;20028;-73
2022/03/19 08:57:21;;;;;;;9.13;3.80;;;13.80;70.60;;;;;;5078614;28;20040;-73
2022/03/19 08:59:46;;;;;;;9.43;3.17;;;13.50;71.50;;;;;;5096759;28;20531;-73
2022/03/19 09:02:12;;;;;;;8.68;3.28;;;13.80;75.90;;;;;;5096652;28;20034;-73
2022/03/19 09:04:37;;;;;;;8.23;3.60;;;14.90;72.80;;;;;;5096624;28;20032;-73
2022/03/19 09:07:03;;;;;;;9.27;3.10;;;14.50;69.40;;;;;;5096331;28;20217;-73
2022/03/19 09:09:28;;;;;;;13.82;3.47;;;14.50;70.10;;;;;;5096587;28;20020;-74
2022/03/19 09:11:54;;;;;;;10.10;3.88;;;13.60;73.20;;;;;;5096418;28;20511;-73
2022/03/19 09:14:20;;;;;;;11.20;3.55;;;14.60;74.60;;;;;;5096394;28;20028;-73
2022/03/19 09:16:46;;;;;;;8.52;3.67;;;14.20;69.70;;;;;;5078197;28;20020;-74
2022/03/19 09:19:12;;;;;;;13.23;3.60;;;14.30;69.70;;;;;;5096377;28;20447;-73
2022/03/19 09:21:37;;;;;;;10.20;3.80;;;14.40;71.00;;;;;;5096350;28;20103;-73
2022/03/19 09:24:04;;;;;;;8.77;2.90;;;14.80;71.40;;;;;;5096390;28;20401;-73
2022/03/19 09:26:30;;;;;;;10.63;3.30;;;15.00;66.30;;;;;;5096181;28;20125;-74
2022/03/19 09:28:57;;;;;;;10.82;3.58;;;13.40;67.30;;;;;;5078107;28;20024;-73
2022/03/19 09:31:23;;;;;;;10.90;3.40;;;12.80;73.90;;;;;;5096146;28;20377;-74
2022/03/19 09:33:48;;;;;;;7.68;3.28;;;13.10;74.90;;;;;;5077123;28;20023;-74
2022/03/19 09:36:15;;;;;;;10.27;3.17;;;13.80;73.50;;;;;;5096011;28;20485;-74
2022/03/19 09:38:41;;;;;;;8.13;3.08;;;14.20;67.70;;;;;;5095976;28;20058;-74
2022/03/19 09:41:07;;;;;;;15.00;3.97;;;13.80;69.50;;;;;;5095897;28;20028;-73
2022/03/19 09:43:33;;;;;;;8.60;3.75;;;12.90;71.50;;;;;;5095837;28;20020;-73
2022/03/19 09:46:01;;;;;;;11.02;3.20;;;12.90;74.30;;;;;;5077500;28;20020;-74
2022/03/19 09:48:26;;;;;;;12.15;4.05;;;13.00;72.50;;;;;;5077503;28;20024;-73
2022/03/19 09:50:54;;;;;;;13.05;3.83;;;13.70;72.20;;;;;;5077657;28;20046;-73
2022/03/19 09:53:22;;;;;;;15.82;3.70;;;14.50;73.50;;;;;;5095581;28;20378;-74
2022/03/19 09:55:48;;;;;;;9.85;3.95;;;14.00;71.20;;;;;;5095552;28;20104;-73
2022/03/19 09:58:15;;;;;;;7.50;3.97;;;13.90;72.90;;;;;;5095496;28;20064;-73
2022/03/19 10:00:41;;;;;;;10.23;3.83;;;14.30;68.20;;;;;;5077714;28;20039;-73
2022/03/19 10:03:10;;;;;;;9.32;3.63;;;13.70;69.90;;;;;;5077487;28;20020;-73
2022/03/19 10:08:39;;;;;;;7.03;3.00;;;14.50;70.10;;;;;;5095126;28;20094;-73
2022/03/19 10:11:08;;;;;;;7.03;3.20;;;14.90;67.20;;;;;;5095230;28;20362;-73
2022/03/19 10:13:37;;;;;;;10.30;3.30;;;15.20;64.20;;;;;;5095208;28;20107;-73
2022/03/19 10:16:03;;;;;;;5.93;3.28;;;15.10;63.10;;;;;;5095211;28;20027;-73
2022/03/19 10:18:31;;;;;;;7.05;2.83;;;14.60;61.50;;;;;;5095173;28;20501;-73
2022/03/19 10:21:01;;;;;;;10.32;2.95;;;14.20;62.10;;;;;;5095065;28;20032;-74
2022/03/19 10:23:32;;;;;;;9.77;2.58;;;13.50;60.90;;;;;;5076991;28;20077;-74
2022/03/19 10:25:58;;;;;;;9.27;2.47;;;13.90;60.90;;;;;;5094864;28;20028;-72
2022/03/19 10:28:33;;;;;;;5.03;2.60;;;13.80;61.60;;;;;;5077019;28;20099;-73
2022/03/19 10:30:59;;;;;;;8.02;2.22;;;13.40;59.60;;;;;;5094918;28;20021;-73
2022/03/19 10:33:28;;;;;;;7.43;2.13;;;13.20;59.60;;;;;;5094933;28;20041;-73
2022/03/19 10:36:10;;;;;;;4.80;2.40;;;14.20;58.50;;;;;;5076584;28;20111;-73
2022/03/19 10:38:45;;;;;;;9.88;2.50;;;14.60;58.10;;;;;;5060050;28;20397;-73
2022/03/19 10:41:16;;;;;;;11.30;2.65;;;14.70;57.80;;;;;;5075632;28;21139;-72
2022/03/19 10:43:45;;;;;;;6.03;2.53;;;14.40;60.40;;;;;;5075597;28;20028;-72
2022/03/19 10:46:11;;;;;;;6.43;2.22;;;14.40;58.00;;;;;;5074755;28;20111;-73
2022/03/19 10:48:37;;;;;;;9.30;2.60;;;13.40;57.20;;;;;;5093956;28;20055;-72
2022/03/19 10:51:08;;;;;;;10.25;2.75;;;13.40;58.40;;;;;;5075991;28;20088;-73
2022/03/19 10:53:34;;;;;;;8.82;2.80;;;13.70;59.30;;;;;;5093880;28;20081;-74
2022/03/19 10:56:01;;;;;;;6.10;2.42;;;13.70;58.70;;;;;;5075957;28;20115;-74
2022/03/19 10:58:27;;;;;;;6.78;2.90;;;13.50;58.70;;;;;;5093959;28;20031;-73
2022/03/19 11:00:53;;;;;;;9.52;2.40;;;13.50;58.50;;;;;;5094035;28;20032;-73
2022/03/19 11:03:22;;;;;;;10.65;2.97;;;13.80;58.00;;;;;;5076057;28;20498;-73
2022/03/19 11:05:52;;;;;;;11.35;3.33;;;14.40;60.80;;;;;;5093519;28;20505;-74
2022/03/19 11:08:20;;;;;;;6.72;2.97;;;15.40;61.90;;;;;;5075216;28;20028;-74
2022/03/19 11:10:49;;;;;;;7.95;2.95;;;15.10;56.30;;;;;;5093887;28;20528;-74
2022/03/19 11:13:20;;;;;;;7.43;2.67;;;13.90;59.10;;;;;;5093750;28;20060;-74
2022/03/19 11:15:49;;;;;;;7.57;3.20;;;13.50;58.20;;;;;;5093487;28;20028;-73
2022/03/19 11:18:19;;;;;;;6.72;2.83;;;13.50;58.10;;;;;;5076126;28;20020;-73
2022/03/19 11:20:45;;;;;;;5.97;2.67;;;13.80;58.40;;;;;;5075869;28;20031;-74
2022/03/19 11:23:15;;;;;;;8.35;2.60;;;13.30;57.70;;;;;;5075522;28;20454;-73
2022/03/19 11:25:50;;;;;;;5.47;2.20;;;13.40;56.90;;;;;;5081795;28;20030;-75
2022/03/19 11:28:18;;;;;;;6.05;2.47;;;12.90;58.00;;;;;;5093461;28;20474;-74
2022/03/19 11:31:00;;;;;;;4.45;2.08;;;12.50;58.20;;;;;;5080688;28;20110;-75
2022/03/19 11:33:30;;;;;;;4.25;2.20;;;12.40;58.00;;;;;;5093400;28;20073;-74
2022/03/19 11:38:40;;;;;;;4.68;2.00;;;12.50;58.30;;;;;;5110734;27;20801;-76
2022/03/19 11:41:25;;;;;;;5.43;2.10;;;12.40;58.00;;;;;;5110976;28;20028;-76
2022/03/19 11:44:10;;;;;;;4.13;1.85;;;12.40;58.90;;;;;;5089127;28;20062;-75
2022/03/19 11:46:57;;;;;;;7.35;2.10;;;12.00;57.80;;;;;;5109119;28;20028;-75
2022/03/19 11:49:44;;;;;;;7.53;2.20;;;12.10;58.30;;;;;;5110868;28;20423;-76
2022/03/19 11:52:10;;;;;;;7.28;2.13;;;12.40;58.30;;;;;;5111147;28;20077;-76
2022/03/19 11:58:02;;;;;;;3.40;2.20;;;12.10;57.10;;;;;;5131982;27;20398;-74
2022/03/19 12:00:30;;;;;;;4.30;2.08;;;12.20;56.90;;;;;;5131905;27;20085;-76
2022/03/19 12:03:16;;;;;;;5.60;2.08;;;12.30;57.20;;;;;;5112854;28;20023;-76
2022/03/19 12:05:47;;;;;;;6.32;2.03;;;12.40;56.90;;;;;;5130851;28;20486;-75
2022/03/19 12:08:16;;;;;;;4.88;2.00;;;12.40;58.60;;;;;;5110363;28;20028;-77
2022/03/19 12:11:01;;;;;;;3.53;2.00;;;12.60;59.10;;;;;;5127337;28;20023;-76
2022/03/19 12:13:31;;;;;;;5.43;2.05;;;12.70;59.20;;;;;;5129880;28;20503;-76
2022/03/19 12:15:59;;;;;;;5.05;1.77;;;12.70;56.70;;;;;;5112620;28;20504;-76
2022/03/19 12:18:29;;;;;;;5.30;1.92;;;12.90;59.00;;;;;;5131676;27;20435;-77
2022/03/19 12:21:05;;;;;;;3.25;1.60;;;12.60;57.20;;;;;;5130378;28;20023;-75
2022/03/19 12:24:10;;;;;;;5.20;2.05;;;12.40;57.30;;;;;;5129923;28;20023;-75
2022/03/19 12:26:40;;;;;;;4.15;2.05;;;12.50;58.30;;;;;;5130809;27;20031;-76
2022/03/19 12:29:08;;;;;;;3.45;1.83;;;12.40;57.00;;;;;;5129754;28;20019;-75
2022/03/19 12:31:37;;;;;;;3.78;1.67;;;12.90;59.20;;;;;;5131206;27;20410;-76
2022/03/19 12:34:04;;;;;;;4.55;1.83;;;12.50;56.50;;;;;;5112937;28;20019;-76
2022/03/19 12:36:31;;;;;;;4.80;1.80;;;12.40;56.10;;;;;;5130825;27;20032;-75
2022/03/19 12:39:05;;;;;;;5.00;1.83;;;12.40;56.80;;;;;;5130495;27;20072;-75
2022/03/19 12:41:32;;;;;;;5.03;1.95;;;12.50;57.70;;;;;;5129262;28;20027;-75
2022/03/19 12:44:00;;;;;;;7.57;2.40;;;12.80;59.00;;;;;;5129173;28;20015;-76
2022/03/19 12:46:29;;;;;;;6.03;2.28;;;12.40;57.00;;;;;;5130656;27;20389;-76
2022/03/19 12:49:12;;;;;;;7.20;2.00;;;12.30;58.10;;;;;;5130395;27;20061;-76
2022/03/19 12:51:42;;;;;;;9.25;2.85;;;12.30;58.80;;;;;;5128992;28;20034;-74
2022/03/19 12:54:30;;;;;;;4.45;2.50;;;12.60;61.70;;;;;;5127706;28;20031;-75
2022/03/19 12:56:58;;;;;;;5.22;2.40;;;12.60;59.80;;;;;;5128708;28;20397;-76
2022/03/19 12:59:27;;;;;;;6.50;2.17;;;12.70;63.20;;;;;;5129512;27;20024;-77
2022/03/19 13:01:54;;;;;;;5.43;2.53;;;12.30;60.00;;;;;;5130083;27;20077;-72